JST416 YSSY-YBCG
Flight info
| Callsign | JST416 |
|---|---|
| Flight time | 0h 58m |
| Altitude | 37000 |
| Route | OLSEM Y193 BANDA Y43 GOMOL |
| Aircraft | A20N/M-SDE2E3FGHIRWXY/LB1 |
Departure
| Time | 2026-05-01 09:07 |
|---|---|
| Airport | Sydney Kingsford Smith International Airport (YSSY) |
Arrival
| Time | 2026-05-01 10:05 |
|---|---|
| Airport | Gold Coast Airport (YBCG) |
| Time | Latitude | Longitude | Altitude | Speed | Heading |
|---|---|---|---|---|---|
| 2026-05-01 08:22 | -33.93524 | 151.17765 | 33 ft | 0 kts | 279° |
| 2026-05-01 08:50 | -33.93525 | 151.17772 | 33 ft | 4 kts | 278° |
| 2026-05-01 08:50 | -33.93527 | 151.17804 | 33 ft | 4 kts | 263° |
| 2026-05-01 08:50 | -33.93519 | 151.17832 | 33 ft | 4 kts | 223° |
| 2026-05-01 08:51 | -33.93508 | 151.17841 | 33 ft | 1 kts | 190° |
| 2026-05-01 08:58 | -33.93516 | 151.17839 | 33 ft | 4 kts | 190° |
| 2026-05-01 08:59 | -33.93567 | 151.17828 | 33 ft | 10 kts | 190° |
| 2026-05-01 08:59 | -33.93642 | 151.17812 | 33 ft | 12 kts | 192° |
| 2026-05-01 08:59 | -33.93744 | 151.17782 | 31 ft | 19 kts | 194° |
| 2026-05-01 08:59 | -33.93883 | 151.17774 | 30 ft | 22 kts | 167° |
| 2026-05-01 09:00 | -33.94059 | 151.17820 | 31 ft | 30 kts | 168° |
| 2026-05-01 09:00 | -33.94256 | 151.17871 | 33 ft | 26 kts | 167° |
| 2026-05-01 09:00 | -33.94423 | 151.17912 | 33 ft | 22 kts | 175° |
| 2026-05-01 09:00 | -33.94542 | 151.17886 | 33 ft | 15 kts | 168° |
| 2026-05-01 09:01 | -33.94646 | 151.17913 | 33 ft | 15 kts | 169° |
| 2026-05-01 09:01 | -33.94744 | 151.17938 | 33 ft | 14 kts | 167° |
| 2026-05-01 09:01 | -33.94838 | 151.17963 | 33 ft | 14 kts | 168° |
| 2026-05-01 09:01 | -33.94930 | 151.17986 | 33 ft | 13 kts | 168° |
| 2026-05-01 09:02 | -33.95022 | 151.18010 | 33 ft | 17 kts | 167° |
| 2026-05-01 09:02 | -33.95103 | 151.18078 | 33 ft | 13 kts | 91° |
| 2026-05-01 09:02 | -33.95080 | 151.18219 | 33 ft | 22 kts | 78° |
| 2026-05-01 09:02 | -33.95042 | 151.18430 | 33 ft | 27 kts | 78° |
| 2026-05-01 09:03 | -33.95117 | 151.18545 | 32 ft | 17 kts | 141° |
| 2026-05-01 09:03 | -33.95230 | 151.18667 | 32 ft | 26 kts | 144° |
| 2026-05-01 09:03 | -33.95425 | 151.18747 | 33 ft | 34 kts | 167° |
| 2026-05-01 09:03 | -33.95657 | 151.18807 | 33 ft | 34 kts | 167° |
| 2026-05-01 09:04 | -33.95885 | 151.18866 | 33 ft | 33 kts | 168° |
| 2026-05-01 09:04 | -33.96106 | 151.18924 | 33 ft | 32 kts | 167° |
| 2026-05-01 09:04 | -33.96321 | 151.18978 | 33 ft | 32 kts | 167° |
| 2026-05-01 09:04 | -33.96534 | 151.19035 | 33 ft | 31 kts | 168° |
| 2026-05-01 09:05 | -33.96740 | 151.19072 | 33 ft | 28 kts | 191° |
| 2026-05-01 09:05 | -33.96924 | 151.19091 | 33 ft | 26 kts | 168° |
| 2026-05-01 09:05 | -33.97100 | 151.19141 | 33 ft | 24 kts | 149° |
| 2026-05-01 09:05 | -33.97120 | 151.19240 | 31 ft | 10 kts | 78° |
| 2026-05-01 09:06 | -33.97092 | 151.19335 | 29 ft | 15 kts | 50° |
| 2026-05-01 09:06 | -33.96967 | 151.19348 | 27 ft | 35 kts | 349° |
| 2026-05-01 09:06 | -33.96484 | 151.19222 | 28 ft | 110 kts | 347° |
| 2026-05-01 09:06 | -33.95493 | 151.18978 | 157 ft | 168 kts | 351° |
| 2026-05-01 09:07 | -33.94310 | 151.18708 | 906 ft | 174 kts | 351° |
| 2026-05-01 09:07 | -33.93159 | 151.18502 | 2003 ft | 158 kts | 0° |
| 2026-05-01 09:07 | -33.92033 | 151.18553 | 2699 ft | 172 kts | 11° |
| 2026-05-01 09:07 | -33.90790 | 151.18920 | 3025 ft | 198 kts | 22° |
| 2026-05-01 09:08 | -33.89515 | 151.19693 | 3547 ft | 211 kts | 34° |
| 2026-05-01 09:08 | -33.88315 | 151.20895 | 3850 ft | 239 kts | 47° |
| 2026-05-01 09:08 | -33.87206 | 151.22478 | 4481 ft | 251 kts | 51° |
| 2026-05-01 09:08 | -33.86123 | 151.24140 | 5068 ft | 256 kts | 51° |
| 2026-05-01 09:09 | -33.85055 | 151.25874 | 5302 ft | 258 kts | 58° |
| 2026-05-01 09:09 | -33.84323 | 151.27872 | 5374 ft | 260 kts | 70° |
| 2026-05-01 09:09 | -33.83775 | 151.29930 | 5388 ft | 262 kts | 72° |
| 2026-05-01 09:09 | -33.83239 | 151.32057 | 5831 ft | 265 kts | 72° |
| 2026-05-01 09:10 | -33.82613 | 151.34128 | 6718 ft | 266 kts | 62° |
| 2026-05-01 09:10 | -33.81605 | 151.35993 | 7623 ft | 267 kts | 52° |
| 2026-05-01 09:10 | -33.80433 | 151.37755 | 8520 ft | 269 kts | 50° |
| 2026-05-01 09:10 | -33.79237 | 151.39489 | 9394 ft | 273 kts | 49° |
| 2026-05-01 09:11 | -33.78011 | 151.41261 | 10257 ft | 277 kts | 49° |
| 2026-05-01 09:11 | -33.76758 | 151.43076 | 10839 ft | 291 kts | 50° |
| 2026-05-01 09:11 | -33.75430 | 151.45005 | 11127 ft | 313 kts | 50° |
| 2026-05-01 09:11 | -33.73988 | 151.47103 | 11423 ft | 334 kts | 50° |
| 2026-05-01 09:12 | -33.72489 | 151.49285 | 11860 ft | 346 kts | 50° |
| 2026-05-01 09:12 | -33.70920 | 151.51571 | 12289 ft | 359 kts | 50° |
| 2026-05-01 09:12 | -33.69305 | 151.53922 | 12774 ft | 368 kts | 50° |
| 2026-05-01 09:12 | -33.67678 | 151.56290 | 13371 ft | 373 kts | 50° |
| 2026-05-01 09:13 | -33.66004 | 151.58714 | 14028 ft | 376 kts | 49° |
| 2026-05-01 09:13 | -33.64144 | 151.60921 | 14605 ft | 380 kts | 40° |
| 2026-05-01 09:13 | -33.62017 | 151.62893 | 15159 ft | 385 kts | 36° |
| 2026-05-01 09:13 | -33.59804 | 151.64699 | 15707 ft | 389 kts | 33° |
| 2026-05-01 09:14 | -33.57523 | 151.66448 | 16240 ft | 394 kts | 32° |
| 2026-05-01 09:14 | -33.55178 | 151.68211 | 16769 ft | 398 kts | 32° |
| 2026-05-01 09:14 | -33.52810 | 151.69997 | 17299 ft | 402 kts | 33° |
| 2026-05-01 09:14 | -33.50408 | 151.71685 | 17795 ft | 406 kts | 26° |
| 2026-05-01 09:15 | -33.47784 | 151.72959 | 18296 ft | 410 kts | 20° |
| 2026-05-01 09:15 | -33.45031 | 151.74044 | 18764 ft | 415 kts | 18° |
| 2026-05-01 09:15 | -33.42280 | 151.74996 | 19197 ft | 417 kts | 16° |
| 2026-05-01 09:15 | -33.39439 | 151.75910 | 19649 ft | 420 kts | 15° |
| 2026-05-01 09:16 | -33.36622 | 151.76791 | 20107 ft | 423 kts | 15° |
| 2026-05-01 09:16 | -33.33786 | 151.77674 | 20563 ft | 426 kts | 15° |
| 2026-05-01 09:16 | -33.30902 | 151.78579 | 21035 ft | 429 kts | 15° |
| 2026-05-01 09:17 | -33.25092 | 151.80430 | 21944 ft | 435 kts | 15° |
| 2026-05-01 09:17 | -33.22146 | 151.81377 | 22409 ft | 438 kts | 15° |
| 2026-05-01 09:17 | -33.16240 | 151.83280 | 23299 ft | 444 kts | 15° |
| 2026-05-01 09:18 | -33.13235 | 151.84249 | 23718 ft | 447 kts | 15° |
| 2026-05-01 09:18 | -33.07197 | 151.86191 | 24467 ft | 452 kts | 15° |
| 2026-05-01 09:19 | -33.01126 | 151.88141 | 25147 ft | 457 kts | 15° |
| 2026-05-01 09:19 | -32.98017 | 151.89137 | 25498 ft | 460 kts | 15° |
| 2026-05-01 09:19 | -32.94930 | 151.90126 | 25828 ft | 462 kts | 15° |
| 2026-05-01 09:20 | -32.88664 | 151.92132 | 26492 ft | 467 kts | 15° |
| 2026-05-01 09:20 | -32.82361 | 151.94147 | 27130 ft | 472 kts | 15° |
| 2026-05-01 09:21 | -32.76012 | 151.96172 | 27736 ft | 476 kts | 15° |
| 2026-05-01 09:21 | -32.72819 | 151.97190 | 28017 ft | 479 kts | 15° |
| 2026-05-01 09:21 | -32.66347 | 151.99251 | 28570 ft | 484 kts | 15° |
| 2026-05-01 09:22 | -32.59831 | 152.01323 | 29150 ft | 487 kts | 15° |
| 2026-05-01 09:22 | -32.53262 | 152.03408 | 29880 ft | 487 kts | 15° |
| 2026-05-01 09:23 | -32.49968 | 152.04452 | 30283 ft | 486 kts | 15° |
| 2026-05-01 09:23 | -32.43448 | 152.06517 | 30977 ft | 485 kts | 15° |
| 2026-05-01 09:24 | -32.36936 | 152.08576 | 31583 ft | 485 kts | 15° |
| 2026-05-01 09:24 | -32.33663 | 152.09610 | 31894 ft | 485 kts | 15° |
| 2026-05-01 09:24 | -32.27172 | 152.11658 | 32468 ft | 485 kts | 14° |
| 2026-05-01 09:25 | -32.20953 | 152.13617 | 33002 ft | 485 kts | 14° |
| 2026-05-01 09:25 | -32.14441 | 152.15666 | 33534 ft | 486 kts | 14° |
| 2026-05-01 09:26 | -32.11203 | 152.16684 | 33820 ft | 486 kts | 14° |
| 2026-05-01 09:26 | -32.04658 | 152.18739 | 34338 ft | 486 kts | 14° |
| 2026-05-01 09:26 | -32.01405 | 152.19759 | 34559 ft | 486 kts | 14° |
| 2026-05-01 09:27 | -31.94869 | 152.21806 | 34977 ft | 486 kts | 14° |
| 2026-05-01 09:27 | -31.91608 | 152.22826 | 35165 ft | 487 kts | 14° |
| 2026-05-01 09:27 | -31.89419 | 152.23511 | 35273 ft | 487 kts | 14° |
| 2026-05-01 09:28 | -31.86127 | 152.24539 | 35489 ft | 487 kts | 13° |
| 2026-05-01 09:28 | -31.82868 | 152.25557 | 35681 ft | 487 kts | 13° |
| 2026-05-01 09:28 | -31.79577 | 152.26584 | 35848 ft | 488 kts | 13° |
| 2026-05-01 09:28 | -31.76320 | 152.27600 | 36055 ft | 488 kts | 13° |
| 2026-05-01 09:29 | -31.69764 | 152.29642 | 36413 ft | 488 kts | 13° |
| 2026-05-01 09:29 | -31.66465 | 152.30668 | 36584 ft | 488 kts | 13° |
| 2026-05-01 09:30 | -31.59900 | 152.32709 | 36950 ft | 488 kts | 13° |
| 2026-05-01 09:30 | -31.56639 | 152.33721 | 37111 ft | 488 kts | 13° |
| 2026-05-01 09:30 | -31.50038 | 152.35768 | 37385 ft | 489 kts | 13° |
| 2026-05-01 09:31 | -31.43479 | 152.37799 | 37371 ft | 489 kts | 13° |
| 2026-05-01 09:32 | -31.33589 | 152.40856 | 37372 ft | 489 kts | 13° |
| 2026-05-01 09:32 | -31.23744 | 152.43892 | 37366 ft | 489 kts | 13° |
| 2026-05-01 09:33 | -31.17176 | 152.45915 | 37368 ft | 489 kts | 13° |
| 2026-05-01 09:34 | -31.07256 | 152.48964 | 37367 ft | 490 kts | 13° |
| 2026-05-01 09:34 | -30.97385 | 152.51991 | 37360 ft | 490 kts | 13° |
| 2026-05-01 09:35 | -30.87502 | 152.55015 | 37363 ft | 490 kts | 12° |
| 2026-05-01 09:36 | -30.80920 | 152.57069 | 37355 ft | 491 kts | 17° |
| 2026-05-01 09:36 | -30.74506 | 152.59830 | 37359 ft | 492 kts | 19° |
| 2026-05-01 09:37 | -30.68112 | 152.62777 | 37362 ft | 493 kts | 20° |
| 2026-05-01 09:37 | -30.58611 | 152.67209 | 37358 ft | 493 kts | 20° |
| 2026-05-01 09:38 | -30.49055 | 152.71633 | 37360 ft | 493 kts | 20° |
| 2026-05-01 09:39 | -30.39462 | 152.76054 | 37354 ft | 493 kts | 20° |
| 2026-05-01 09:39 | -30.33079 | 152.78990 | 37342 ft | 493 kts | 20° |
| 2026-05-01 09:40 | -30.23536 | 152.83373 | 37339 ft | 493 kts | 20° |
| 2026-05-01 09:41 | -30.17146 | 152.86303 | 37336 ft | 494 kts | 19° |
| 2026-05-01 09:41 | -30.07552 | 152.90695 | 37337 ft | 494 kts | 19° |
| 2026-05-01 09:42 | -30.01207 | 152.93593 | 37335 ft | 494 kts | 19° |
| 2026-05-01 09:43 | -29.88430 | 152.99419 | 36752 ft | 494 kts | 20° |
| 2026-05-01 09:43 | -29.85207 | 153.00885 | 36501 ft | 495 kts | 20° |
| 2026-05-01 09:43 | -29.82042 | 153.02325 | 36253 ft | 495 kts | 20° |
| 2026-05-01 09:44 | -29.75683 | 153.05216 | 35752 ft | 482 kts | 20° |
| 2026-05-01 09:44 | -29.72573 | 153.06629 | 35514 ft | 478 kts | 20° |
| 2026-05-01 09:44 | -29.69476 | 153.08034 | 35283 ft | 480 kts | 20° |
| 2026-05-01 09:45 | -29.66390 | 153.09432 | 35052 ft | 481 kts | 20° |
| 2026-05-01 09:45 | -29.60163 | 153.12250 | 34389 ft | 480 kts | 20° |
| 2026-05-01 09:45 | -29.57027 | 153.13669 | 33551 ft | 483 kts | 20° |
| 2026-05-01 09:46 | -29.53911 | 153.15077 | 32753 ft | 486 kts | 20° |
| 2026-05-01 09:46 | -29.50759 | 153.16501 | 31938 ft | 489 kts | 20° |
| 2026-05-01 09:46 | -29.47594 | 153.17929 | 31101 ft | 492 kts | 20° |
| 2026-05-01 09:46 | -29.44382 | 153.19379 | 30205 ft | 495 kts | 21° |
| 2026-05-01 09:47 | -29.41144 | 153.20839 | 29202 ft | 498 kts | 21° |
| 2026-05-01 09:47 | -29.37945 | 153.22280 | 28277 ft | 499 kts | 21° |
| 2026-05-01 09:47 | -29.34681 | 153.23750 | 27357 ft | 500 kts | 21° |
| 2026-05-01 09:47 | -29.31489 | 153.25186 | 26736 ft | 495 kts | 21° |
| 2026-05-01 09:48 | -29.28268 | 153.26635 | 26057 ft | 490 kts | 21° |
| 2026-05-01 09:48 | -29.25128 | 153.28046 | 25371 ft | 486 kts | 21° |
| 2026-05-01 09:48 | -29.21981 | 153.29459 | 24677 ft | 483 kts | 21° |
| 2026-05-01 09:48 | -29.18880 | 153.30851 | 24001 ft | 471 kts | 22° |
| 2026-05-01 09:49 | -29.15889 | 153.32192 | 23261 ft | 462 kts | 22° |
| 2026-05-01 09:49 | -29.12889 | 153.33536 | 22570 ft | 457 kts | 22° |
| 2026-05-01 09:49 | -29.09931 | 153.34861 | 21895 ft | 452 kts | 22° |
| 2026-05-01 09:49 | -29.07046 | 153.36153 | 21238 ft | 448 kts | 22° |
| 2026-05-01 09:50 | -29.04149 | 153.37450 | 20572 ft | 443 kts | 22° |
| 2026-05-01 09:50 | -29.01279 | 153.38733 | 19908 ft | 439 kts | 22° |
| 2026-05-01 09:50 | -28.98455 | 153.39995 | 19250 ft | 435 kts | 22° |
| 2026-05-01 09:50 | -28.95638 | 153.41253 | 18589 ft | 432 kts | 22° |
| 2026-05-01 09:51 | -28.92873 | 153.42487 | 17867 ft | 428 kts | 22° |
| 2026-05-01 09:51 | -28.90094 | 153.43727 | 17209 ft | 422 kts | 22° |
| 2026-05-01 09:51 | -28.87399 | 153.44928 | 16580 ft | 417 kts | 22° |
| 2026-05-01 09:51 | -28.84703 | 153.46129 | 15939 ft | 411 kts | 22° |
| 2026-05-01 09:52 | -28.82068 | 153.47302 | 15320 ft | 406 kts | 23° |
| 2026-05-01 09:52 | -28.79433 | 153.48474 | 14697 ft | 401 kts | 23° |
| 2026-05-01 09:52 | -28.76843 | 153.49626 | 14085 ft | 396 kts | 23° |
| 2026-05-01 09:52 | -28.74306 | 153.50754 | 13419 ft | 392 kts | 23° |
| 2026-05-01 09:53 | -28.71765 | 153.51883 | 12813 ft | 385 kts | 23° |
| 2026-05-01 09:53 | -28.69306 | 153.52975 | 12235 ft | 379 kts | 23° |
| 2026-05-01 09:53 | -28.66856 | 153.54062 | 11658 ft | 373 kts | 24° |
| 2026-05-01 09:53 | -28.64477 | 153.55117 | 11080 ft | 369 kts | 24° |
| 2026-05-01 09:54 | -28.62101 | 153.56171 | 10546 ft | 363 kts | 24° |
| 2026-05-01 09:54 | -28.59786 | 153.57195 | 10402 ft | 346 kts | 24° |
| 2026-05-01 09:54 | -28.57587 | 153.58166 | 10292 ft | 329 kts | 24° |
| 2026-05-01 09:54 | -28.55520 | 153.59078 | 10179 ft | 314 kts | 24° |
| 2026-05-01 09:55 | -28.53512 | 153.59938 | 10045 ft | 302 kts | 20° |
| 2026-05-01 09:55 | -28.51504 | 153.60466 | 9758 ft | 296 kts | 15° |
| 2026-05-01 09:55 | -28.49474 | 153.60896 | 9295 ft | 295 kts | 13° |
| 2026-05-01 09:55 | -28.47449 | 153.61251 | 8912 ft | 292 kts | 11° |
| 2026-05-01 09:56 | -28.45463 | 153.61559 | 8546 ft | 288 kts | 11° |
| 2026-05-01 09:56 | -28.43475 | 153.61852 | 8179 ft | 285 kts | 11° |
| 2026-05-01 09:56 | -28.41523 | 153.62136 | 7820 ft | 283 kts | 11° |
| 2026-05-01 09:56 | -28.39573 | 153.62425 | 7462 ft | 281 kts | 11° |
| 2026-05-01 09:57 | -28.37651 | 153.62714 | 7112 ft | 279 kts | 11° |
| 2026-05-01 09:57 | -28.35739 | 153.63006 | 6759 ft | 278 kts | 12° |
| 2026-05-01 09:57 | -28.33818 | 153.63302 | 6389 ft | 276 kts | 12° |
| 2026-05-01 09:57 | -28.31890 | 153.63492 | 5964 ft | 279 kts | 3° |
| 2026-05-01 09:58 | -28.29982 | 153.63454 | 5680 ft | 276 kts | 2° |
| 2026-05-01 09:58 | -28.28057 | 153.63346 | 5386 ft | 273 kts | 0° |
| 2026-05-01 09:58 | -28.26203 | 153.63192 | 5246 ft | 260 kts | 359° |
| 2026-05-01 09:58 | -28.24396 | 153.63022 | 4702 ft | 267 kts | 359° |
| 2026-05-01 09:59 | -28.22530 | 153.62844 | 4297 ft | 269 kts | 359° |
| 2026-05-01 09:59 | -28.20661 | 153.62664 | 3956 ft | 268 kts | 360° |
| 2026-05-01 09:59 | -28.18834 | 153.62491 | 3702 ft | 263 kts | 359° |
| 2026-05-01 09:59 | -28.17036 | 153.62310 | 3575 ft | 252 kts | 356° |
| 2026-05-01 10:00 | -28.15407 | 153.61783 | 3500 ft | 241 kts | 339° |
| 2026-05-01 10:00 | -28.13997 | 153.60821 | 3357 ft | 231 kts | 328° |
| 2026-05-01 10:00 | -28.12731 | 153.59758 | 3298 ft | 223 kts | 325° |
| 2026-05-01 10:00 | -28.11523 | 153.58691 | 3294 ft | 221 kts | 324° |
| 2026-05-01 10:01 | -28.10305 | 153.57598 | 3292 ft | 224 kts | 324° |
| 2026-05-01 10:01 | -28.09103 | 153.56457 | 3288 ft | 225 kts | 318° |
| 2026-05-01 10:01 | -28.08104 | 153.55125 | 3082 ft | 223 kts | 304° |
| 2026-05-01 10:01 | -28.07432 | 153.53535 | 2715 ft | 224 kts | 286° |
| 2026-05-01 10:02 | -28.07169 | 153.51803 | 2398 ft | 219 kts | 268° |
| 2026-05-01 10:02 | -28.07316 | 153.50125 | 2093 ft | 213 kts | 250° |
| 2026-05-01 10:02 | -28.07941 | 153.48658 | 1772 ft | 202 kts | 226° |
| 2026-05-01 10:02 | -28.08970 | 153.47688 | 1484 ft | 189 kts | 201° |
| 2026-05-01 10:03 | -28.10197 | 153.47287 | 1228 ft | 177 kts | 180° |
| 2026-05-01 10:03 | -28.11379 | 153.47438 | 1012 ft | 163 kts | 160° |
| 2026-05-01 10:03 | -28.12334 | 153.47922 | 866 ft | 139 kts | 154° |
| 2026-05-01 10:03 | -28.13132 | 153.48457 | 567 ft | 131 kts | 150° |
| 2026-05-01 10:04 | -28.13882 | 153.48979 | 395 ft | 126 kts | 153° |
| 2026-05-01 10:04 | -28.14651 | 153.49467 | 313 ft | 127 kts | 154° |
| 2026-05-01 10:04 | -28.15423 | 153.49937 | 156 ft | 124 kts | 155° |
| 2026-05-01 10:04 | -28.16178 | 153.50405 | 31 ft | 118 kts | 152° |
| 2026-05-01 10:05 | -28.16708 | 153.50741 | 32 ft | 60 kts | 149° |
| 2026-05-01 10:05 | -28.17046 | 153.50956 | 31 ft | 53 kts | 152° |
| 2026-05-01 10:05 | -28.17366 | 153.51160 | 29 ft | 52 kts | 150° |
| 2026-05-01 10:05 | -28.17593 | 153.51350 | 30 ft | 14 kts | 83° |
| 2026-05-01 10:06 | -28.17557 | 153.51408 | 30 ft | 10 kts | 52° |
| 2026-05-01 10:06 | -28.17508 | 153.51446 | 29 ft | 8 kts | 11° |
| 2026-05-01 10:06 | -28.17456 | 153.51436 | 29 ft | 10 kts | 335° |
| 2026-05-01 10:06 | -28.17339 | 153.51359 | 29 ft | 28 kts | 330° |
| 2026-05-01 10:07 | -28.17150 | 153.51241 | 29 ft | 30 kts | 333° |
| 2026-05-01 10:07 | -28.17071 | 153.51263 | 29 ft | 7 kts | 37° |
| 2026-05-01 10:07 | -28.17004 | 153.51253 | 29 ft | 14 kts | 330° |
| 2026-05-01 10:07 | -28.16897 | 153.51185 | 29 ft | 21 kts | 330° |
| 2026-05-01 10:08 | -28.16750 | 153.51143 | 29 ft | 4 kts | 50° |
| 2026-05-01 10:08 | -28.16737 | 153.51172 | 29 ft | 7 kts | 64° |
| 2026-05-01 10:08 | -28.16720 | 153.51208 | 29 ft | 0 kts | 61° |